sensor_id;sensor_type;location;lat;lon;timestamp;pressure;altitude;pressure_sealevel;temperature;humidity
78170;BME280;67412;49.892;14.490;2024-01-30T00:01:06;98831.78;;;-3.10;100.00
78170;BME280;67412;49.892;14.490;2024-01-30T00:03:31;98838.19;;;-3.15;100.00
78170;BME280;67412;49.892;14.490;2024-01-30T00:05:56;98835.78;;;-3.27;100.00
78170;BME280;67412;49.892;14.490;2024-01-30T00:08:22;98834.41;;;-3.35;100.00
78170;BME280;67412;49.892;14.490;2024-01-30T00:10:47;98837.50;;;-3.39;100.00
78170;BME280;67412;49.892;14.490;2024-01-30T00:13:13;98837.13;;;-3.45;100.00
78170;BME280;67412;49.892;14.490;2024-01-30T00:15:39;98831.78;;;-3.50;100.00
78170;BME280;67412;49.892;14.490;2024-01-30T00:18:04;98835.63;;;-3.55;100.00
78170;BME280;67412;49.892;14.490;2024-01-30T00:20:29;98834.56;;;-3.58;100.00
78170;BME280;67412;49.892;14.490;2024-01-30T00:22:55;98834.75;;;-3.55;100.00
78170;BME280;67412;49.892;14.490;2024-01-30T00:25:20;98840.66;;;-3.55;100.00
78170;BME280;67412;49.892;14.490;2024-01-30T00:27:46;98835.38;;;-3.46;100.00
78170;BME280;67412;49.892;14.490;2024-01-30T00:30:11;98832.84;;;-3.33;100.00
78170;BME280;67412;49.892;14.490;2024-01-30T00:32:37;98835.38;;;-3.20;100.00
78170;BME280;67412;49.892;14.490;2024-01-30T00:35:02;98835.09;;;-3.24;100.00
78170;BME280;67412;49.892;14.490;2024-01-30T00:37:28;98831.50;;;-3.28;100.00
78170;BME280;67412;49.892;14.490;2024-01-30T00:39:53;98831.13;;;-3.34;100.00
78170;BME280;67412;49.892;14.490;2024-01-30T00:42:19;98825.50;;;-3.43;100.00
78170;BME280;67412;49.892;14.490;2024-01-30T00:44:44;98832.75;;;-3.48;100.00
78170;BME280;67412;49.892;14.490;2024-01-30T00:47:10;98830.44;;;-3.58;100.00
78170;BME280;67412;49.892;14.490;2024-01-30T00:49:35;98840.47;;;-3.58;100.00
78170;BME280;67412;49.892;14.490;2024-01-30T00:52:01;98827.16;;;-3.57;100.00
78170;BME280;67412;49.892;14.490;2024-01-30T00:54:26;98822.13;;;-3.57;100.00
78170;BME280;67412;49.892;14.490;2024-01-30T00:56:51;98826.16;;;-3.59;100.00
78170;BME280;67412;49.892;14.490;2024-01-30T00:59:17;98823.19;;;-3.53;100.00
78170;BME280;67412;49.892;14.490;2024-01-30T01:01:42;98821.25;;;-3.57;100.00
78170;BME280;67412;49.892;14.490;2024-01-30T01:04:07;98817.38;;;-3.65;100.00
78170;BME280;67412;49.892;14.490;2024-01-30T01:06:33;98815.34;;;-3.58;100.00
78170;BME280;67412;49.892;14.490;2024-01-30T01:08:58;98824.53;;;-3.58;100.00
78170;BME280;67412;49.892;14.490;2024-01-30T01:11:24;98824.03;;;-3.66;100.00
78170;BME280;67412;49.892;14.490;2024-01-30T01:13:49;98821.78;;;-3.74;100.00
78170;BME280;67412;49.892;14.490;2024-01-30T01:16:14;98815.81;;;-3.76;100.00
78170;BME280;67412;49.892;14.490;2024-01-30T01:18:40;98816.00;;;-3.73;100.00
78170;BME280;67412;49.892;14.490;2024-01-30T01:21:05;98820.47;;;-3.69;100.00
78170;BME280;67412;49.892;14.490;2024-01-30T01:23:31;98806.06;;;-3.72;100.00
78170;BME280;67412;49.892;14.490;2024-01-30T01:25:56;98808.38;;;-3.75;100.00
78170;BME280;67412;49.892;14.490;2024-01-30T01:28:21;98807.97;;;-3.81;100.00
78170;BME280;67412;49.892;14.490;2024-01-30T01:30:47;98806.91;;;-3.84;100.00
78170;BME280;67412;49.892;14.490;2024-01-30T01:33:12;98803.63;;;-3.83;100.00
78170;BME280;67412;49.892;14.490;2024-01-30T01:35:39;98800.25;;;-3.84;100.00
78170;BME280;67412;49.892;14.490;2024-01-30T01:38:05;98799.44;;;-3.96;100.00
78170;BME280;67412;49.892;14.490;2024-01-30T01:40:30;98800.69;;;-4.03;100.00
78170;BME280;67412;49.892;14.490;2024-01-30T01:42:56;98802.81;;;-4.09;100.00
78170;BME280;67412;49.892;14.490;2024-01-30T01:45:21;98800.13;;;-3.99;100.00
78170;BME280;67412;49.892;14.490;2024-01-30T01:47:50;98804.28;;;-3.86;100.00
78170;BME280;67412;49.892;14.490;2024-01-30T01:50:17;98807.78;;;-3.84;100.00
78170;BME280;67412;49.892;14.490;2024-01-30T01:52:48;98807.47;;;-3.88;100.00
78170;BME280;67412;49.892;14.490;2024-01-30T01:55:14;98803.50;;;-3.98;100.00
78170;BME280;67412;49.892;14.490;2024-01-30T01:57:41;98802.31;;;-4.03;100.00
78170;BME280;67412;49.892;14.490;2024-01-30T02:00:08;98798.63;;;-4.08;100.00
78170;BME280;67412;49.892;14.490;2024-01-30T02:02:36;98799.31;;;-4.11;100.00
78170;BME280;67412;49.892;14.490;2024-01-30T02:05:01;98805.88;;;-4.13;100.00
78170;BME280;67412;49.892;14.490;2024-01-30T02:07:28;98798.81;;;-4.18;100.00
78170;BME280;67412;49.892;14.490;2024-01-30T02:09:54;98803.72;;;-4.20;100.00
78170;BME280;67412;49.892;14.490;2024-01-30T02:12:19;98798.50;;;-4.23;100.00
78170;BME280;67412;49.892;14.490;2024-01-30T02:14:48;98796.09;;;-4.21;100.00
78170;BME280;67412;49.892;14.490;2024-01-30T02:17:15;98794.59;;;-4.31;100.00
78170;BME280;67412;49.892;14.490;2024-01-30T02:19:41;98794.41;;;-4.34;100.00
78170;BME280;67412;49.892;14.490;2024-01-30T02:22:07;98795.28;;;-4.33;100.00
78170;BME280;67412;49.892;14.490;2024-01-30T02:24:33;98797.91;;;-4.32;100.00
78170;BME280;67412;49.892;14.490;2024-01-30T02:26:58;98801.16;;;-4.33;100.00
78170;BME280;67412;49.892;14.490;2024-01-30T02:29:23;98799.28;;;-4.24;100.00
78170;BME280;67412;49.892;14.490;2024-01-30T02:31:49;98802.25;;;-4.29;100.00
78170;BME280;67412;49.892;14.490;2024-01-30T02:34:14;98801.16;;;-4.33;100.00
78170;BME280;67412;49.892;14.490;2024-01-30T02:36:43;98800.03;;;-4.25;100.00
78170;BME280;67412;49.892;14.490;2024-01-30T02:39:08;98795.47;;;-4.30;100.00
78170;BME280;67412;49.892;14.490;2024-01-30T02:41:34;98797.59;;;-4.36;100.00
78170;BME280;67412;49.892;14.490;2024-01-30T02:44:00;98794.03;;;-4.27;100.00
78170;BME280;67412;49.892;14.490;2024-01-30T02:46:25;98796.91;;;-4.09;100.00
78170;BME280;67412;49.892;14.490;2024-01-30T02:48:51;98793.66;;;-4.20;100.00
78170;BME280;67412;49.892;14.490;2024-01-30T02:51:16;98790.88;;;-4.24;100.00
78170;BME280;67412;49.892;14.490;2024-01-30T02:53:42;98790.88;;;-4.24;100.00
78170;BME280;67412;49.892;14.490;2024-01-30T02:56:07;98786.31;;;-4.30;100.00
78170;BME280;67412;49.892;14.490;2024-01-30T02:58:34;98782.84;;;-4.32;100.00
78170;BME280;67412;49.892;14.490;2024-01-30T03:01:00;98787.44;;;-4.38;100.00
78170;BME280;67412;49.892;14.490;2024-01-30T03:03:25;98788.00;;;-4.42;100.00
78170;BME280;67412;49.892;14.490;2024-01-30T03:05:50;98787.25;;;-4.41;100.00
78170;BME280;67412;49.892;14.490;2024-01-30T03:08:16;98788.56;;;-4.46;100.00
78170;BME280;67412;49.892;14.490;2024-01-30T03:10:41;98789.91;;;-4.51;100.00
78170;BME280;67412;49.892;14.490;2024-01-30T03:13:06;98781.47;;;-4.40;100.00
78170;BME280;67412;49.892;14.490;2024-01-30T03:15:32;98782.19;;;-4.29;100.00
78170;BME280;67412;49.892;14.490;2024-01-30T03:17:57;98781.25;;;-4.18;100.00
78170;BME280;67412;49.892;14.490;2024-01-30T03:20:22;98782.50;;;-4.12;100.00
78170;BME280;67412;49.892;14.490;2024-01-30T03:22:48;98784.00;;;-4.02;100.00
78170;BME280;67412;49.892;14.490;2024-01-30T03:25:13;98782.50;;;-4.12;100.00
78170;BME280;67412;49.892;14.490;2024-01-30T03:27:38;98782.00;;;-4.19;100.00
78170;BME280;67412;49.892;14.490;2024-01-30T03:30:04;98778.22;;;-4.26;100.00
78170;BME280;67412;49.892;14.490;2024-01-30T03:32:30;98778.91;;;-4.28;100.00
78170;BME280;67412;49.892;14.490;2024-01-30T03:34:55;98774.44;;;-4.32;100.00
78170;BME280;67412;49.892;14.490;2024-01-30T03:37:21;98772.69;;;-4.33;100.00
78170;BME280;67412;49.892;14.490;2024-01-30T03:39:46;98770.69;;;-4.39;100.00
78170;BME280;67412;49.892;14.490;2024-01-30T03:42:11;98770.53;;;-4.54;100.00
78170;BME280;67412;49.892;14.490;2024-01-30T03:44:36;98771.38;;;-4.53;100.00
78170;BME280;67412;49.892;14.490;2024-01-30T03:47:02;98771.16;;;-4.56;100.00
78170;BME280;67412;49.892;14.490;2024-01-30T03:49:27;98768.56;;;-4.58;100.00
78170;BME280;67412;49.892;14.490;2024-01-30T03:51:53;98768.66;;;-4.56;100.00
78170;BME280;67412;49.892;14.490;2024-01-30T03:54:18;98769.81;;;-4.40;100.00
78170;BME280;67412;49.892;14.490;2024-01-30T03:56:43;98770.75;;;-4.38;100.00
78170;BME280;67412;49.892;14.490;2024-01-30T03:59:08;98768.94;;;-4.40;100.00
78170;BME280;67412;49.892;14.490;2024-01-30T04:01:34;98767.28;;;-4.40;100.00
78170;BME280;67412;49.892;14.490;2024-01-30T04:03:59;98761.22;;;-4.43;100.00
78170;BME280;67412;49.892;14.490;2024-01-30T04:06:24;98763.47;;;-4.46;100.00
78170;BME280;67412;49.892;14.490;2024-01-30T04:08:50;98763.09;;;-4.52;100.00
78170;BME280;67412;49.892;14.490;2024-01-30T04:11:18;98769.53;;;-4.56;100.00
78170;BME280;67412;49.892;14.490;2024-01-30T04:13:43;98764.88;;;-4.63;100.00
78170;BME280;67412;49.892;14.490;2024-01-30T04:16:19;98762.81;;;-4.68;100.00
78170;BME280;67412;49.892;14.490;2024-01-30T04:18:45;98757.28;;;-4.76;100.00
78170;BME280;67412;49.892;14.490;2024-01-30T04:21:11;98756.22;;;-4.79;100.00
78170;BME280;67412;49.892;14.490;2024-01-30T04:23:36;98757.56;;;-4.84;100.00
78170;BME280;67412;49.892;14.490;2024-01-30T04:26:01;98759.25;;;-4.83;100.00
78170;BME280;67412;49.892;14.490;2024-01-30T04:28:26;98747.31;;;-4.88;100.00
78170;BME280;67412;49.892;14.490;2024-01-30T04:30:52;98748.84;;;-4.90;100.00
78170;BME280;67412;49.892;14.490;2024-01-30T04:33:17;98749.50;;;-4.92;100.00
78170;BME280;67412;49.892;14.490;2024-01-30T04:35:43;98753.84;;;-4.90;100.00
78170;BME280;67412;49.892;14.490;2024-01-30T04:38:08;98755.69;;;-4.87;100.00
78170;BME280;67412;49.892;14.490;2024-01-30T04:40:34;98750.38;;;-4.92;100.00
78170;BME280;67412;49.892;14.490;2024-01-30T04:42:59;98758.34;;;-4.97;100.00
78170;BME280;67412;49.892;14.490;2024-01-30T04:45:24;98759.75;;;-5.01;100.00
78170;BME280;67412;49.892;14.490;2024-01-30T04:47:50;98762.50;;;-5.09;100.00
78170;BME280;67412;49.892;14.490;2024-01-30T04:50:15;98765.13;;;-5.08;100.00
78170;BME280;67412;49.892;14.490;2024-01-30T04:52:41;98769.06;;;-5.11;100.00
78170;BME280;67412;49.892;14.490;2024-01-30T04:55:06;98763.28;;;-5.10;100.00
78170;BME280;67412;49.892;14.490;2024-01-30T04:57:32;98771.22;;;-5.04;100.00
78170;BME280;67412;49.892;14.490;2024-01-30T04:59:59;98767.16;;;-5.02;100.00
78170;BME280;67412;49.892;14.490;2024-01-30T05:02:24;98762.81;;;-5.05;100.00
78170;BME280;67412;49.892;14.490;2024-01-30T05:04:49;98774.47;;;-5.05;100.00
78170;BME280;67412;49.892;14.490;2024-01-30T05:07:15;98767.97;;;-5.15;100.00
78170;BME280;67412;49.892;14.490;2024-01-30T05:09:40;98768.84;;;-5.14;100.00
78170;BME280;67412;49.892;14.490;2024-01-30T05:12:06;98769.59;;;-5.15;100.00
78170;BME280;67412;49.892;14.490;2024-01-30T05:14:32;98769.41;;;-5.18;100.00
78170;BME280;67412;49.892;14.490;2024-01-30T05:16:57;98771.34;;;-5.14;100.00
78170;BME280;67412;49.892;14.490;2024-01-30T05:19:22;98768.06;;;-5.13;100.00
78170;BME280;67412;49.892;14.490;2024-01-30T05:21:49;98768.72;;;-5.16;100.00
78170;BME280;67412;49.892;14.490;2024-01-30T05:24:14;98771.22;;;-5.16;100.00
78170;BME280;67412;49.892;14.490;2024-01-30T05:26:39;98773.66;;;-5.17;100.00
78170;BME280;67412;49.892;14.490;2024-01-30T05:29:06;98779.81;;;-5.12;100.00
78170;BME280;67412;49.892;14.490;2024-01-30T05:31:31;98772.44;;;-5.11;100.00
78170;BME280;67412;49.892;14.490;2024-01-30T05:33:57;98779.06;;;-5.11;100.00
78170;BME280;67412;49.892;14.490;2024-01-30T05:36:22;98770.81;;;-5.10;100.00
78170;BME280;67412;49.892;14.490;2024-01-30T05:38:48;98774.06;;;-5.11;100.00
78170;BME280;67412;49.892;14.490;2024-01-30T05:41:13;98774.94;;;-5.11;100.00
78170;BME280;67412;49.892;14.490;2024-01-30T05:43:38;98778.00;;;-5.15;100.00
78170;BME280;67412;49.892;14.490;2024-01-30T05:46:04;98778.41;;;-5.09;100.00
78170;BME280;67412;49.892;14.490;2024-01-30T05:48:29;98784.50;;;-5.05;100.00
78170;BME280;67412;49.892;14.490;2024-01-30T05:50:54;98773.59;;;-5.06;100.00
78170;BME280;67412;49.892;14.490;2024-01-30T05:53:20;98777.19;;;-5.02;100.00
78170;BME280;67412;49.892;14.490;2024-01-30T05:55:45;98777.75;;;-5.06;100.00
78170;BME280;67412;49.892;14.490;2024-01-30T05:58:11;98772.44;;;-5.11;100.00
78170;BME280;67412;49.892;14.490;2024-01-30T06:00:36;98780.03;;;-5.09;100.00
78170;BME280;67412;49.892;14.490;2024-01-30T06:03:02;98775.91;;;-5.20;100.00
78170;BME280;67412;49.892;14.490;2024-01-30T06:05:27;98775.91;;;-5.20;100.00
78170;BME280;67412;49.892;14.490;2024-01-30T06:07:52;98767.66;;;-5.19;100.00
78170;BME280;67412;49.892;14.490;2024-01-30T06:10:18;98773.72;;;-5.16;100.00
78170;BME280;67412;49.892;14.490;2024-01-30T06:12:44;98767.97;;;-5.15;100.00
78170;BME280;67412;49.892;14.490;2024-01-30T06:15:09;98765.88;;;-5.09;100.00
78170;BME280;67412;49.892;14.490;2024-01-30T06:17:35;98767.75;;;-5.06;100.00
78170;BME280;67412;49.892;14.490;2024-01-30T06:20:00;98768.59;;;-5.06;100.00
78170;BME280;67412;49.892;14.490;2024-01-30T06:22:26;98755.44;;;-5.15;100.00
78170;BME280;67412;49.892;14.490;2024-01-30T06:24:51;98763.84;;;-5.26;100.00
78170;BME280;67412;49.892;14.490;2024-01-30T06:27:16;98758.72;;;-5.27;100.00
78170;BME280;67412;49.892;14.490;2024-01-30T06:29:43;98763.84;;;-5.26;100.00
78170;BME280;67412;49.892;14.490;2024-01-30T06:32:08;98771.78;;;-5.31;100.00
78170;BME280;67412;49.892;14.490;2024-01-30T06:34:34;98767.78;;;-5.41;100.00
78170;BME280;67412;49.892;14.490;2024-01-30T06:36:59;98768.53;;;-5.42;100.00
78170;BME280;67412;49.892;14.490;2024-01-30T06:39:25;98769.94;;;-5.34;100.00
78170;BME280;67412;49.892;14.490;2024-01-30T06:41:51;98771.56;;;-5.23;100.00
78170;BME280;67412;49.892;14.490;2024-01-30T06:44:16;98786.81;;;-5.20;100.00
78170;BME280;67412;49.892;14.490;2024-01-30T06:46:41;98781.16;;;-5.17;100.00
78170;BME280;67412;49.892;14.490;2024-01-30T06:49:07;98786.81;;;-5.20;100.00
78170;BME280;67412;49.892;14.490;2024-01-30T06:51:32;98777.78;;;-5.18;100.00
78170;BME280;67412;49.892;14.490;2024-01-30T06:53:57;98790.19;;;-5.19;100.00
78170;BME280;67412;49.892;14.490;2024-01-30T06:56:23;98788.34;;;-5.22;100.00
78170;BME280;67412;49.892;14.490;2024-01-30T06:58:49;98786.47;;;-5.24;100.00
78170;BME280;67412;49.892;14.490;2024-01-30T07:01:15;98789.31;;;-5.20;100.00
78170;BME280;67412;49.892;14.490;2024-01-30T07:03:40;98789.44;;;-5.18;100.00
78170;BME280;67412;49.892;14.490;2024-01-30T07:06:05;98785.50;;;-5.15;100.00
78170;BME280;67412;49.892;14.490;2024-01-30T07:08:31;98784.41;;;-5.07;100.00
78170;BME280;67412;49.892;14.490;2024-01-30T07:10:56;98790.59;;;-5.02;100.00
78170;BME280;67412;49.892;14.490;2024-01-30T07:13:21;98790.03;;;-4.98;100.00
78170;BME280;67412;49.892;14.490;2024-01-30T07:15:47;98794.81;;;-4.89;100.00
78170;BME280;67412;49.892;14.490;2024-01-30T07:18:12;98798.53;;;-4.84;100.00
78170;BME280;67412;49.892;14.490;2024-01-30T07:20:39;98796.31;;;-4.79;100.00
78170;BME280;67412;49.892;14.490;2024-01-30T07:23:10;98807.13;;;-4.80;100.00
78170;BME280;67412;49.892;14.490;2024-01-30T07:25:39;98808.28;;;-4.75;100.00
78170;BME280;67412;49.892;14.490;2024-01-30T07:28:07;98808.94;;;-4.66;100.00
78170;BME280;67412;49.892;14.490;2024-01-30T07:30:32;98811.41;;;-4.55;100.00
78170;BME280;67412;49.892;14.490;2024-01-30T07:32:57;98810.56;;;-4.42;100.00
78170;BME280;67412;49.892;14.490;2024-01-30T07:35:23;98813.34;;;-4.26;100.00
78170;BME280;67412;49.892;14.490;2024-01-30T07:37:48;98813.50;;;-4.11;100.00
78170;BME280;67412;49.892;14.490;2024-01-30T07:40:13;98812.75;;;-3.97;100.00
78170;BME280;67412;49.892;14.490;2024-01-30T07:42:39;98817.06;;;-3.83;100.00
78170;BME280;67412;49.892;14.490;2024-01-30T07:45:04;98819.38;;;-3.73;100.00
78170;BME280;67412;49.892;14.490;2024-01-30T07:47:30;98817.19;;;-3.68;100.00
78170;BME280;67412;49.892;14.490;2024-01-30T07:49:55;98818.25;;;-3.52;100.00
78170;BME280;67412;49.892;14.490;2024-01-30T07:52:20;98832.38;;;-3.41;100.00
78170;BME280;67412;49.892;14.490;2024-01-30T07:58:07;98823.47;;;-3.22;100.00
78170;BME280;67412;49.892;14.490;2024-01-30T08:00:33;98820.00;;;-3.24;100.00
78170;BME280;67412;49.892;14.490;2024-01-30T08:02:58;98824.38;;;-3.09;100.00
78170;BME280;67412;49.892;14.490;2024-01-30T08:05:23;98820.09;;;-2.97;100.00
78170;BME280;67412;49.892;14.490;2024-01-30T08:07:49;98813.50;;;-2.95;100.00
78170;BME280;67412;49.892;14.490;2024-01-30T08:10:15;98815.44;;;-2.90;100.00
78170;BME280;67412;49.892;14.490;2024-01-30T08:12:41;98819.91;;;-2.86;100.00
78170;BME280;67412;49.892;14.490;2024-01-30T08:15:07;98819.78;;;-2.88;100.00
78170;BME280;67412;49.892;14.490;2024-01-30T08:17:33;98822.50;;;-2.85;100.00
78170;BME280;67412;49.892;14.490;2024-01-30T08:19:58;98813.97;;;-2.74;100.00
78170;BME280;67412;49.892;14.490;2024-01-30T08:22:24;98813.75;;;-2.64;100.00
78170;BME280;67412;49.892;14.490;2024-01-30T08:24:49;98809.50;;;-2.65;100.00
78170;BME280;67412;49.892;14.490;2024-01-30T08:27:14;98806.75;;;-2.55;100.00
78170;BME280;67412;49.892;14.490;2024-01-30T08:29:40;98809.72;;;-2.47;100.00
78170;BME280;67412;49.892;14.490;2024-01-30T08:32:06;98811.06;;;-2.39;100.00
78170;BME280;67412;49.892;14.490;2024-01-30T08:34:31;98814.81;;;-2.32;100.00
78170;BME280;67412;49.892;14.490;2024-01-30T08:36:57;98813.38;;;-2.29;100.00
78170;BME280;67412;49.892;14.490;2024-01-30T08:39:22;98810.78;;;-2.16;100.00
78170;BME280;67412;49.892;14.490;2024-01-30T08:41:47;98815.06;;;-2.00;100.00
78170;BME280;67412;49.892;14.490;2024-01-30T08:44:13;98808.47;;;-1.83;100.00
78170;BME280;67412;49.892;14.490;2024-01-30T08:46:38;98806.66;;;-1.71;100.00
78170;BME280;67412;49.892;14.490;2024-01-30T08:49:03;98805.00;;;-1.71;100.00
78170;BME280;67412;49.892;14.490;2024-01-30T08:51:32;98794.66;;;-1.61;100.00
78170;BME280;67412;49.892;14.490;2024-01-30T08:53:59;98806.00;;;-1.54;100.00
78170;BME280;67412;49.892;14.490;2024-01-30T08:56:24;98800.16;;;-1.53;100.00
78170;BME280;67412;49.892;14.490;2024-01-30T08:58:49;98805.72;;;-1.59;100.00
78170;BME280;67412;49.892;14.490;2024-01-30T09:01:15;98797.00;;;-1.49;100.00
78170;BME280;67412;49.892;14.490;2024-01-30T09:03:40;98803.97;;;-1.45;100.00
78170;BME280;67412;49.892;14.490;2024-01-30T09:06:11;98806.22;;;-1.50;100.00
78170;BME280;67412;49.892;14.490;2024-01-30T09:08:37;98800.34;;;-1.50;100.00
78170;BME280;67412;49.892;14.490;2024-01-30T09:11:12;98810.16;;;-1.40;100.00
78170;BME280;67412;49.892;14.490;2024-01-30T09:13:37;98802.72;;;-1.22;100.00
78170;BME280;67412;49.892;14.490;2024-01-30T09:16:03;98797.94;;;-1.18;100.00
78170;BME280;67412;49.892;14.490;2024-01-30T09:18:29;98807.06;;;-1.05;100.00
78170;BME280;67412;49.892;14.490;2024-01-30T09:20:54;98804.25;;;-0.95;100.00
78170;BME280;67412;49.892;14.490;2024-01-30T09:23:19;98807.03;;;-0.90;100.00
78170;BME280;67412;49.892;14.490;2024-01-30T09:25:45;98800.91;;;-0.79;100.00
78170;BME280;67412;49.892;14.490;2024-01-30T09:28:10;98798.59;;;-0.75;100.00
78170;BME280;67412;49.892;14.490;2024-01-30T09:30:36;98804.69;;;-0.71;100.00
78170;BME280;67412;49.892;14.490;2024-01-30T09:33:01;98808.31;;;-0.66;100.00
78170;BME280;67412;49.892;14.490;2024-01-30T09:35:26;98812.59;;;-0.65;100.00
78170;BME280;67412;49.892;14.490;2024-01-30T09:37:52;98806.81;;;-0.63;100.00
78170;BME280;67412;49.892;14.490;2024-01-30T09:40:18;98811.34;;;-0.57;100.00
78170;BME280;67412;49.892;14.490;2024-01-30T09:42:50;98806.03;;;-0.62;100.00
78170;BME280;67412;49.892;14.490;2024-01-30T09:45:17;98811.50;;;-0.54;100.00
78170;BME280;67412;49.892;14.490;2024-01-30T09:47:44;98812.50;;;-0.67;100.00
78170;BME280;67412;49.892;14.490;2024-01-30T09:50:11;98811.47;;;-0.70;100.00
78170;BME280;67412;49.892;14.490;2024-01-30T09:52:44;98814.34;;;-0.64;100.00
78170;BME280;67412;49.892;14.490;2024-01-30T09:55:10;98816.13;;;-0.62;100.00
78170;BME280;67412;49.892;14.490;2024-01-30T09:57:36;98815.88;;;-0.66;100.00
78170;BME280;67412;49.892;14.490;2024-01-30T10:00:03;98808.56;;;-0.62;100.00
78170;BME280;67412;49.892;14.490;2024-01-30T10:02:29;98819.28;;;-0.66;100.00
78170;BME280;67412;49.892;14.490;2024-01-30T10:04:54;98810.59;;;-0.71;100.00
78170;BME280;67412;49.892;14.490;2024-01-30T10:07:20;98815.72;;;-0.69;100.00
78170;BME280;67412;49.892;14.490;2024-01-30T10:09:46;98814.34;;;-0.64;100.00
78170;BME280;67412;49.892;14.490;2024-01-30T10:12:12;98814.53;;;-0.60;100.00
78170;BME280;67412;49.892;14.490;2024-01-30T10:14:42;98808.97;;;-0.54;100.00
78170;BME280;67412;49.892;14.490;2024-01-30T10:17:08;98796.59;;;-0.50;100.00
78170;BME280;67412;49.892;14.490;2024-01-30T10:19:35;98797.00;;;-0.42;100.00
78170;BME280;67412;49.892;14.490;2024-01-30T10:22:01;98792.00;;;-0.40;100.00
78170;BME280;67412;49.892;14.490;2024-01-30T10:24:26;98791.00;;;-0.44;100.00
78170;BME280;67412;49.892;14.490;2024-01-30T10:26:53;98780.41;;;-0.37;100.00
78170;BME280;67412;49.892;14.490;2024-01-30T10:29:18;98779.16;;;-0.29;100.00
78170;BME280;67412;49.892;14.490;2024-01-30T10:31:44;98780.13;;;-0.27;100.00
78170;BME280;67412;49.892;14.490;2024-01-30T10:34:09;98774.34;;;-0.24;100.00
78170;BME280;67412;49.892;14.490;2024-01-30T10:36:39;98773.63;;;-0.22;100.00
78170;BME280;67412;49.892;14.490;2024-01-30T10:39:08;98773.97;;;-0.16;100.00
78170;BME280;67412;49.892;14.490;2024-01-30T10:41:48;98769.94;;;-0.12;100.00
78170;BME280;67412;49.892;14.490;2024-01-30T10:44:18;98769.34;;;-0.07;100.00
78170;BME280;67412;49.892;14.490;2024-01-30T10:46:50;98770.47;;;-0.02;100.00
78170;BME280;67412;49.892;14.490;2024-01-30T10:49:16;98769.81;;;0.03;100.00
78170;BME280;67412;49.892;14.490;2024-01-30T10:51:41;98767.66;;;-0.08;100.00
78170;BME280;67412;49.892;14.490;2024-01-30T10:54:08;98772.03;;;-0.04;100.00
78170;BME280;67412;49.892;14.490;2024-01-30T10:56:35;98762.88;;;-0.02;100.00
78170;BME280;67412;49.892;14.490;2024-01-30T10:59:01;98763.19;;;0.05;100.00
78170;BME280;67412;49.892;14.490;2024-01-30T11:01:27;98753.53;;;0.14;100.00
78170;BME280;67412;49.892;14.490;2024-01-30T11:03:54;98756.13;;;0.15;100.00
78170;BME280;67412;49.892;14.490;2024-01-30T11:06:27;98756.97;;;0.32;100.00
78170;BME280;67412;49.892;14.490;2024-01-30T11:09:03;98761.78;;;0.27;100.00
78170;BME280;67412;49.892;14.490;2024-01-30T11:11:29;98761.88;;;0.29;100.00
78170;BME280;67412;49.892;14.490;2024-01-30T11:13:54;98762.50;;;0.25;100.00
78170;BME280;67412;49.892;14.490;2024-01-30T11:16:20;98763.28;;;0.24;100.00
78170;BME280;67412;49.892;14.490;2024-01-30T11:18:50;98746.78;;;0.30;100.00
78170;BME280;67412;49.892;14.490;2024-01-30T11:21:15;98746.50;;;0.42;100.00
78170;BME280;67412;49.892;14.490;2024-01-30T11:23:42;98743.19;;;0.43;100.00
78170;BME280;67412;49.892;14.490;2024-01-30T11:26:10;98750.13;;;0.47;100.00
78170;BME280;67412;49.892;14.490;2024-01-30T11:28:37;98747.44;;;0.44;100.00
78170;BME280;67412;49.892;14.490;2024-01-30T11:31:03;98744.63;;;0.38;100.00
78170;BME280;67412;49.892;14.490;2024-01-30T11:33:29;98740.94;;;0.49;100.00
78170;BME280;67412;49.892;14.490;2024-01-30T11:35:59;98745.78;;;0.44;100.00
78170;BME280;67412;49.892;14.490;2024-01-30T11:38:26;98737.25;;;0.42;100.00
78170;BME280;67412;49.892;14.490;2024-01-30T11:40:53;98731.78;;;0.51;100.00
78170;BME280;67412;49.892;14.490;2024-01-30T11:43:18;98726.94;;;0.56;100.00
78170;BME280;67412;49.892;14.490;2024-01-30T11:45:44;98729.84;;;0.63;100.00
78170;BME280;67412;49.892;14.490;2024-01-30T11:48:11;98730.75;;;0.65;100.00
78170;BME280;67412;49.892;14.490;2024-01-30T11:50:37;98729.97;;;0.66;100.00
78170;BME280;67412;49.892;14.490;2024-01-30T11:53:04;98718.63;;;0.76;100.00
78170;BME280;67412;49.892;14.490;2024-01-30T11:55:30;98715.66;;;0.84;100.00
78170;BME280;67412;49.892;14.490;2024-01-30T11:57:57;98721.63;;;0.86;100.00
78170;BME280;67412;49.892;14.490;2024-01-30T12:00:22;98720.06;;;0.88;100.00
78170;BME280;67412;49.892;14.490;2024-01-30T12:02:53;98722.94;;;0.96;100.00
78170;BME280;67412;49.892;14.490;2024-01-30T12:05:21;98710.84;;;0.90;100.00
78170;BME280;67412;49.892;14.490;2024-01-30T12:07:47;98715.72;;;0.86;100.00
78170;BME280;67412;49.892;14.490;2024-01-30T12:10:14;98715.66;;;0.84;100.00
78170;BME280;67412;49.892;14.490;2024-01-30T12:12:46;98707.41;;;0.88;100.00
78170;BME280;67412;49.892;14.490;2024-01-30T12:15:12;98708.19;;;0.87;100.00
78170;BME280;67412;49.892;14.490;2024-01-30T12:17:38;98706.00;;;0.95;100.00
78170;BME280;67412;49.892;14.490;2024-01-30T12:22:33;98697.19;;;1.05;100.00
78170;BME280;67412;49.892;14.490;2024-01-30T12:24:58;98697.03;;;1.02;100.00
78170;BME280;67412;49.892;14.490;2024-01-30T12:27:23;98692.84;;;1.02;100.00
78170;BME280;67412;49.892;14.490;2024-01-30T12:29:55;98695.31;;;1.01;100.00
78170;BME280;67412;49.892;14.490;2024-01-30T12:32:22;98693.13;;;1.08;100.00
78170;BME280;67412;49.892;14.490;2024-01-30T12:34:48;98695.66;;;1.08;100.00
78170;BME280;67412;49.892;14.490;2024-01-30T12:37:13;98696.78;;;1.15;100.00
78170;BME280;67412;49.892;14.490;2024-01-30T12:39:39;98688.22;;;1.11;100.00